Startpagina
METAR-TAF:

METAR-TAF

Vliegvelden :

Larnaca, Cyprus

Luchthaven Larnaca

breedte: 34-53N, lengte: 033-38E, hoogte: 2 m

Actueel weer

Dit bericht is 14 minuten geleden gemaakt, om 21:00 UTC
Wind 1 kt uit het westnoordwesten
Temperatuur 10°C
Vochtigheid 100%
Druk 1018 hPa
Zicht 10 km of meer
Weinig wolken op 5000 ft

METAR: LCLK 162100Z 29001KT 9999 FEW050 10/10 Q1018 NOSIG

Tijdstip: 23:14 (21:14 UTC)

Verwachting

Dit bericht is 3 uur en het 44 minuten geleden gemaakt, om 17:30 UTC
Verwachting geldig van 16 om 18 UTC tot 17 om 18 UTC
Wind 9 kt uit het westnoordwesten
Zicht 10 km of meer
Weinig wolken op 3000 ft
Wijzigt naar
van 17 om 09 UTC tot 17 om 12 UTC
Wind 11 kt uit het zuidzuidwesten

TAF: LCLK 161730Z 1618/1718 30009KT 9999 FEW030 BECMG 1709/1712 21011KT

Waarnemingen en weersverwachtingen van meer dan 4000 vliegvelden (METAR en TAF).

De beschikbare stations zijn de gele en rode punten op de kaart.

Ga met uw muis naar het station om de naam te zien.

Klik dan om waarnemingen en weersverwachtingen te zien.

kaart wijzigen: klik op de groene knoppen met een zwart kruis om in te zoomen, op de groene knop met een streepje om uit te zoomen of op de groene pijlen voor aangrenzende kaarten.


METAR-TAF: